Time;durP1;ratioP1;P1;durP2;ratioP2;P2;SDS_P1;SDS_P2;PMS_P1;PMS_P2;Temp;Humidity;BMP_temperature;BMP_pressure;BME280_temperature;BME280_humidity;BME280_pressure;Samples;Min_cycle;Max_cycle;Signal;HPM_P1;HPM_P2
2020/12/14 00:41:39;;;;;;;4.20;3.60;;;4.60;99.90;;;;;;6193839;23;20180;31
2020/12/14 05:56:44;;;;;;;3.25;2.30;;;1.40;99.90;;;;;;6192787;23;20028;-83
2020/12/14 05:59:13;;;;;;;3.83;2.67;;;1.50;99.90;;;;;;6133315;23;20006;-83
2020/12/14 06:01:43;;;;;;;2.95;2.63;;;1.40;99.90;;;;;;6135333;23;20010;-84
2020/12/14 06:04:15;;;;;;;3.08;2.40;;;1.50;99.90;;;;;;6145173;23;19994;-86
2020/12/14 06:06:46;;;;;;;4.65;2.88;;;1.40;99.90;;;;;;6156386;23;20005;-85
2020/12/14 06:09:37;;;;;;;4.68;3.42;;;1.40;99.90;;;;;;6162216;23;20001;-84
2020/12/14 06:12:11;;;;;;;5.55;2.90;;;1.40;99.90;;;;;;6131424;23;20012;-84
2020/12/14 06:14:39;;;;;;;4.15;2.95;;;1.50;99.90;;;;;;6158831;23;20005;-84
2020/12/14 06:17:11;;;;;;;4.63;3.05;;;1.40;99.90;;;;;;6133979;23;20090;-84
2020/12/14 06:19:39;;;;;;;3.00;2.53;;;1.40;99.90;;;;;;6133690;23;20002;-83
2020/12/14 06:22:09;;;;;;;3.25;2.20;;;1.40;99.90;;;;;;6109371;23;20097;-84
2020/12/14 06:24:38;;;;;;;4.68;3.15;;;1.40;99.90;;;;;;6110944;23;20016;-84
2020/12/14 06:27:10;;;;;;;4.80;3.85;;;1.40;99.90;;;;;;6144712;23;20005;-84
2020/12/14 06:29:41;;;;;;;4.15;3.20;;;1.40;99.90;;;;;;6116102;23;20028;-83
2020/12/14 06:32:40;;;;;;;2.78;2.13;;;1.40;99.90;;;;;;6132255;23;20033;-84
2020/12/14 06:35:16;;;;;;;4.53;2.88;;;1.50;99.90;;;;;;6157921;23;20006;-85
2020/12/14 06:37:54;;;;;;;3.75;2.92;;;1.50;99.90;;;;;;6133515;23;20040;-85
2020/12/14 06:40:21;;;;;;;4.47;2.35;;;1.60;99.90;;;;;;6156923;23;20461;-84
2020/12/14 06:42:47;;;;;;;2.88;2.13;;;1.30;99.90;;;;;;6141941;23;20013;-84
2020/12/14 06:45:16;;;;;;;4.20;2.53;;;1.30;99.90;;;;;;6155844;23;19993;-86
2020/12/14 06:47:51;;;;;;;3.03;2.50;;;1.30;99.90;;;;;;6154171;23;20039;-85
2020/12/14 06:50:29;;;;;;;3.83;2.70;;;1.30;99.90;;;;;;6147999;23;20313;-85
2020/12/14 06:52:56;;;;;;;3.95;3.15;;;1.40;99.90;;;;;;6135050;23;20006;-84
2020/12/14 06:55:42;;;;;;;3.22;2.47;;;1.40;99.90;;;;;;6134388;23;20375;-85
2020/12/14 06:58:09;;;;;;;3.88;3.05;;;1.40;99.90;;;;;;6159258;23;20524;-85
2020/12/14 07:00:38;;;;;;;4.43;3.45;;;1.40;99.90;;;;;;6134537;23;20013;-84
2020/12/14 07:03:04;;;;;;;5.55;3.20;;;1.50;99.90;;;;;;6144127;23;20013;-85
2020/12/14 07:05:30;;;;;;;5.07;3.28;;;1.50;99.90;;;;;;6154571;23;20107;-87
2020/12/14 07:07:59;;;;;;;6.93;4.40;;;1.50;99.90;;;;;;6154954;23;20004;-86
2020/12/14 07:10:29;;;;;;;4.93;3.05;;;1.50;99.90;;;;;;6180360;23;20004;-87
2020/12/14 07:12:56;;;;;;;4.72;2.90;;;1.50;99.90;;;;;;6152197;23;19993;-86
2020/12/14 07:15:24;;;;;;;4.55;3.42;;;1.50;99.90;;;;;;6178179;23;20005;-87
2020/12/14 07:18:03;;;;;;;5.07;3.65;;;1.50;99.90;;;;;;6153927;23;20053;-87
2020/12/14 07:20:28;;;;;;;4.20;3.20;;;1.50;99.90;;;;;;6154229;23;19994;-86
2020/12/14 07:23:01;;;;;;;3.83;2.78;;;1.60;99.90;;;;;;6178651;23;20049;-86
2020/12/14 07:25:27;;;;;;;;;;;1.60;99.90;;;;;;6150375;23;20005;-86
2020/12/14 07:27:52;;;;;;;2.70;2.35;;;1.60;99.90;;;;;;6145639;23;19907;-86
2020/12/14 07:30:19;;;;;;;3.67;2.97;;;1.70;99.90;;;;;;6172330;23;20002;-85
2020/12/14 07:32:48;;;;;;;3.67;2.63;;;1.70;99.90;;;;;;6146699;23;20056;-85
2020/12/14 07:35:14;;;;;;;4.22;2.90;;;1.70;99.90;;;;;;6140306;23;19997;-87
2020/12/14 07:37:40;;;;;;;6.55;3.45;;;1.70;99.90;;;;;;6140333;23;20009;-86
2020/12/14 07:40:10;;;;;;;3.65;2.88;;;1.80;99.90;;;;;;6140830;23;20184;-86
2020/12/14 07:42:44;;;;;;;4.05;2.67;;;1.80;99.90;;;;;;6162278;23;20067;-87
2020/12/14 07:45:21;;;;;;;3.67;2.80;;;1.80;99.90;;;;;;6159516;23;20017;-87
2020/12/14 07:47:52;;;;;;;3.70;2.70;;;1.90;99.90;;;;;;6134006;23;20032;-87
2020/12/14 07:50:28;;;;;;;4.07;2.83;;;2.00;99.90;;;;;;6158278;23;20006;-88
2020/12/14 07:52:55;;;;;;;2.47;2.22;;;2.00;99.90;;;;;;6159238;23;20301;-87
2020/12/14 07:55:22;;;;;;;2.80;2.10;;;2.10;99.90;;;;;;6158640;23;20032;-87
2020/12/14 07:57:49;;;;;;;3.83;2.70;;;2.10;99.90;;;;;;6157553;23;20395;-87
2020/12/14 08:00:20;;;;;;;3.70;2.20;;;2.10;99.90;;;;;;6133810;23;20056;-87
2020/12/14 08:02:46;;;;;;;3.92;2.70;;;2.20;99.90;;;;;;6158541;23;20025;-87
2020/12/14 08:05:19;;;;;;;3.53;2.40;;;2.30;99.90;;;;;;6133238;23;20048;-87
2020/12/14 08:07:58;;;;;;;2.78;1.98;;;2.30;99.90;;;;;;6159698;23;20008;-87
2020/12/14 08:10:32;;;;;;;3.10;2.17;;;2.40;99.90;;;;;;6133433;23;20010;-87
2020/12/14 08:13:00;;;;;;;2.65;2.13;;;2.40;99.90;;;;;;6136870;23;20430;-86
2020/12/14 08:15:30;;;;;;;2.80;2.17;;;2.50;99.90;;;;;;6134910;23;20425;-87
2020/12/14 08:17:58;;;;;;;1.63;1.38;;;2.50;99.90;;;;;;6133452;23;20006;-86
2020/12/14 08:20:27;;;;;;;3.65;1.77;;;2.60;99.90;;;;;;6133125;23;20327;-86
2020/12/14 08:22:57;;;;;;;1.98;1.80;;;2.70;99.90;;;;;;6159468;23;20002;-86
2020/12/14 08:25:30;;;;;;;2.80;1.75;;;2.70;99.90;;;;;;6156937;23;20446;-86
2020/12/14 08:28:00;;;;;;;3.40;1.98;;;2.80;99.90;;;;;;6130690;23;20006;-86
2020/12/14 08:30:26;;;;;;;4.50;1.70;;;2.80;99.90;;;;;;6131017;23;20005;-86
2020/12/14 08:33:13;;;;;;;1.30;1.00;;;2.90;99.90;;;;;;6130945;23;20009;-86
2020/12/14 08:35:40;;;;;;;1.55;1.20;;;2.90;99.90;;;;;;6132580;23;20034;-86
2020/12/14 08:38:12;;;;;;;1.98;1.25;;;3.00;99.90;;;;;;6132331;23;20361;-86
2020/12/14 08:40:42;;;;;;;2.05;1.85;;;3.10;99.90;;;;;;6132526;23;20112;-86
2020/12/14 08:43:14;;;;;;;3.47;2.05;;;3.20;99.90;;;;;;6160726;23;20037;-88
2020/12/14 08:46:14;;;;;;;3.67;2.38;;;3.20;99.90;;;;;;6132496;23;20009;-86
2020/12/14 08:48:40;;;;;;;2.38;1.60;;;3.30;99.90;;;;;;6131452;23;20457;-87
2020/12/14 08:51:14;;;;;;;4.03;2.60;;;3.40;99.80;;;;;;6135576;23;20005;-86
2020/12/14 08:53:42;;;;;;;5.25;2.78;;;3.40;99.60;;;;;;6132250;23;20001;-87
2020/12/14 08:56:10;;;;;;;4.82;3.28;;;3.50;99.50;;;;;;6137777;23;20321;-87
2020/12/14 08:59:00;;;;;;;5.47;2.70;;;3.50;99.00;;;;;;6152587;23;20010;-88
2020/12/14 09:01:28;;;;;;;6.35;3.13;;;3.60;99.00;;;;;;6139964;23;20014;-89
2020/12/14 09:03:55;;;;;;;5.20;2.70;;;3.60;98.60;;;;;;6136386;23;20064;-87
2020/12/14 09:06:25;;;;;;;4.65;3.05;;;3.70;98.60;;;;;;6133313;23;20005;-87
2020/12/14 09:09:03;;;;;;;3.63;2.67;;;3.80;98.30;;;;;;6133229;23;20006;-86
2020/12/14 09:11:50;;;;;;;6.25;3.15;;;3.90;98.10;;;;;;6136259;23;20013;-88
2020/12/14 09:14:21;;;;;;;6.55;2.88;;;4.00;97.50;;;;;;6134558;23;20088;-85
2020/12/14 09:16:52;;;;;;;4.47;2.95;;;4.10;97.40;;;;;;6133491;23;20446;-87
2020/12/14 09:19:29;;;;;;;4.00;2.63;;;4.20;97.40;;;;;;6161286;23;20506;-88
2020/12/14 09:21:56;;;;;;;3.40;2.30;;;4.30;97.00;;;;;;6160429;23;20053;-87
2020/12/14 09:24:29;;;;;;;4.38;2.55;;;4.40;96.90;;;;;;6134405;23;20488;-86
2020/12/14 09:27:05;;;;;;;3.78;2.50;;;4.50;96.40;;;;;;6132794;23;19998;-87
2020/12/14 09:29:32;;;;;;;2.78;2.13;;;4.60;96.20;;;;;;6129665;23;20033;-87
2020/12/14 09:31:58;;;;;;;3.63;2.38;;;4.70;95.60;;;;;;6134492;23;20001;-87
2020/12/14 09:34:25;;;;;;;3.55;2.17;;;4.80;95.20;;;;;;6136046;23;20009;-87
2020/12/14 09:36:56;;;;;;;3.70;2.53;;;4.80;94.80;;;;;;6159579;23;20433;-87
2020/12/14 09:39:24;;;;;;;2.40;2.00;;;4.90;94.40;;;;;;6161053;23;19998;-87
2020/12/14 09:41:50;;;;;;;2.67;1.77;;;5.00;94.40;;;;;;6133527;23;20040;-87
2020/12/14 09:44:17;;;;;;;1.98;1.73;;;5.10;94.00;;;;;;6160170;23;19997;-86
2020/12/14 09:46:43;;;;;;;3.17;1.77;;;5.20;94.10;;;;;;6135166;23;20077;-87
2020/12/14 09:49:10;;;;;;;2.88;2.63;;;5.30;93.60;;;;;;6133141;23;20059;-87
2020/12/14 09:51:36;;;;;;;3.47;2.35;;;5.30;93.20;;;;;;6135360;23;20028;-87
2020/12/14 09:54:05;;;;;;;3.88;2.70;;;5.40;93.20;;;;;;6138710;23;20085;-87
2020/12/14 09:56:32;;;;;;;2.55;2.03;;;5.40;92.70;;;;;;6139334;23;20085;-87
2020/12/14 09:59:00;;;;;;;3.53;2.15;;;5.40;92.70;;;;;;6137152;23;20349;-87
2020/12/14 10:01:31;;;;;;;4.63;2.53;;;5.50;92.30;;;;;;6149308;23;20016;-86
2020/12/14 10:03:57;;;;;;;2.45;1.90;;;5.50;91.70;;;;;;6143545;23;20009;-87
2020/12/14 10:06:23;;;;;;;2.85;1.45;;;5.50;91.90;;;;;;6155300;23;20012;-88
2020/12/14 10:08:49;;;;;;;2.40;1.60;;;5.60;91.80;;;;;;6179989;23;20062;-87
2020/12/14 10:11:17;;;;;;;3.35;2.25;;;5.70;91.50;;;;;;6163532;23;20009;-86
2020/12/14 10:13:46;;;;;;;2.80;1.63;;;5.70;90.80;;;;;;6137510;23;20056;-87
2020/12/14 10:16:14;;;;;;;2.97;1.90;;;5.80;90.80;;;;;;6136578;23;20006;-87
2020/12/14 10:18:43;;;;;;;3.03;1.77;;;5.80;90.40;;;;;;6137055;23;20093;-86
2020/12/14 10:21:08;;;;;;;3.05;1.90;;;5.90;90.20;;;;;;6136180;23;20009;-87
2020/12/14 10:23:34;;;;;;;4.13;1.77;;;5.90;90.10;;;;;;6135931;23;20339;-87
2020/12/14 10:26:01;;;;;;;2.30;1.65;;;6.00;89.50;;;;;;6135798;23;20029;-87
2020/12/14 10:28:26;;;;;;;2.13;1.42;;;6.00;89.30;;;;;;6137410;23;20550;-86
2020/12/14 10:30:52;;;;;;;2.72;1.77;;;6.00;89.00;;;;;;6136648;23;20066;-86
2020/12/14 10:33:19;;;;;;;2.95;1.85;;;6.10;88.50;;;;;;6140101;23;20069;-87
2020/12/14 10:35:56;;;;;;;5.30;2.25;;;6.10;88.70;;;;;;6153482;23;20009;-87
2020/12/14 10:38:21;;;;;;;3.22;2.08;;;6.10;87.30;;;;;;6149616;23;20004;-86
2020/12/14 10:40:47;;;;;;;3.67;1.83;;;6.10;88.40;;;;;;6141399;23;20362;-86
2020/12/14 10:43:13;;;;;;;3.25;1.20;;;6.20;87.90;;;;;;6138431;23;20005;-86
2020/12/14 10:45:41;;;;;;;1.60;1.50;;;6.30;87.60;;;;;;6137195;23;20020;-87
2020/12/14 10:48:09;;;;;;;1.95;1.13;;;6.40;87.70;;;;;;6136485;23;20009;-86
2020/12/14 10:50:39;;;;;;;3.65;1.50;;;;;;;;;;6136904;23;20535;-86
2020/12/14 10:53:10;;;;;;;1.83;1.25;;;6.60;86.20;;;;;;6135895;23;20080;-86
2020/12/14 10:55:40;;;;;;;1.42;1.05;;;6.60;86.50;;;;;;6136423;23;20463;-87
2020/12/14 10:58:06;;;;;;;1.17;0.95;;;6.70;86.60;;;;;;6138788;23;20025;-87
2020/12/14 11:00:35;;;;;;;1.27;1.00;;;6.80;86.40;;;;;;6151753;23;19993;-87
2020/12/14 11:03:01;;;;;;;3.20;1.25;;;6.80;86.00;;;;;;6143919;23;20005;-87
2020/12/14 11:05:27;;;;;;;3.25;1.60;;;6.80;85.10;;;;;;6135944;23;20084;-87
2020/12/14 11:07:54;;;;;;;3.30;1.90;;;6.80;84.70;;;;;;6136665;23;20104;-87
2020/12/14 11:10:20;;;;;;;2.05;1.48;;;6.80;84.20;;;;;;6163182;23;20010;-87
2020/12/14 11:12:46;;;;;;;2.35;1.75;;;6.90;84.40;;;;;;6162659;23;20025;-87
2020/12/14 11:15:12;;;;;;;4.88;1.55;;;7.00;84.40;;;;;;6135981;23;20002;-86
2020/12/14 11:17:37;;;;;;;1.63;1.30;;;7.00;84.50;;;;;;6136441;23;20092;-86
2020/12/14 11:20:09;;;;;;;5.20;2.15;;;7.00;83.60;;;;;;6134808;23;20064;-87
2020/12/14 11:22:44;;;;;;;4.07;2.08;;;7.00;82.00;;;;;;6135787;23;20080;-87
2020/12/14 11:25:10;;;;;;;1.92;1.73;;;7.00;82.90;;;;;;6162688;23;20017;-87
2020/12/14 11:27:39;;;;;;;2.92;1.67;;;7.10;83.30;;;;;;6134218;23;20434;-86
2020/12/14 11:30:05;;;;;;;3.03;1.83;;;7.20;83.10;;;;;;6133500;23;20001;-87
2020/12/14 11:32:32;;;;;;;2.78;1.70;;;7.30;83.10;;;;;;6133708;23;20049;-87
2020/12/14 11:35:01;;;;;;;2.35;1.30;;;7.60;88.20;;;;;;6134695;23;20021;-87
2020/12/14 11:37:30;;;;;;;3.38;1.13;;;;;;;;;;6136496;23;20006;-87
2020/12/14 11:39:56;;;;;;;1.27;1.10;;;7.80;79.90;;;;;;6138991;23;20013;-86
2020/12/14 11:42:21;;;;;;;1.25;1.13;;;7.90;80.20;;;;;;6161834;23;20036;-86
2020/12/14 11:44:49;;;;;;;1.27;1.15;;;8.00;79.60;;;;;;6136170;23;20016;-86
2020/12/14 11:47:15;;;;;;;2.03;1.70;;;8.10;79.50;;;;;;6162792;23;20001;-85
2020/12/14 11:49:40;;;;;;;6.75;1.80;;;8.20;78.20;;;;;;6134911;23;20012;-86
2020/12/14 11:52:10;;;;;;;2.25;1.65;;;8.30;78.20;;;;;;6145193;23;19997;-86
2020/12/14 11:54:35;;;;;;;2.58;1.83;;;8.40;77.60;;;;;;6152305;23;19990;-86
2020/12/14 11:57:03;;;;;;;2.00;1.70;;;8.40;76.40;;;;;;6179328;23;20028;-87
2020/12/14 11:59:29;;;;;;;1.55;1.38;;;8.30;76.70;;;;;;6136624;23;20376;-86
2020/12/14 12:02:00;;;;;;;3.53;1.90;;;8.30;88.60;;;;;;6133419;23;20033;-86
2020/12/14 12:04:26;;;;;;;3.17;2.00;;;8.00;78.40;;;;;;6132628;23;20025;-86
2020/12/14 12:06:52;;;;;;;3.10;1.75;;;;;;;;;;6159424;23;19997;-86
2020/12/14 13:01:08;;;;;;;2.47;1.60;;;;;;;;;;6210464;23;20009;-87
2020/12/14 13:03:34;;;;;;;2.67;1.85;;;8.40;85.50;;;;;;6131628;23;20285;-87
2020/12/14 13:06:01;;;;;;;5.97;2.58;;;8.30;81.70;;;;;;6131824;23;20435;-87
2020/12/14 13:08:27;;;;;;;3.67;2.50;;;8.10;81.70;;;;;;6133195;23;20001;-87
2020/12/14 13:10:52;;;;;;;2.67;1.83;;;7.90;82.80;;;;;;6158234;23;20005;-86
2020/12/14 13:13:18;;;;;;;1.88;1.63;;;7.80;83.90;;;;;;6130911;23;20010;-87
2020/12/14 13:15:50;;;;;;;1.90;1.70;;;;;;;;;;6131221;23;20295;-87
2020/12/14 13:18:23;;;;;;;2.72;1.60;;;7.70;99.90;;;;;;6131016;23;20001;-87
2020/12/14 13:20:51;;;;;;;1.67;1.20;;;7.60;85.70;;;;;;6130638;23;20024;-86
2020/12/14 13:23:17;;;;;;;1.00;1.00;;;7.50;86.20;;;;;;6159610;23;20009;-87
2020/12/14 13:25:43;;;;;;;3.60;2.22;;;7.60;86.60;;;;;;6158536;23;20002;-87
2020/12/14 13:28:09;;;;;;;4.20;2.30;;;;;;;;;;6174067;23;20001;-86
2020/12/14 13:30:34;;;;;;;3.65;2.38;;;7.50;86.70;;;;;;6176523;23;20029;-85
2020/12/14 13:33:00;;;;;;;2.42;1.88;;;7.50;87.20;;;;;;6176607;23;20071;-87
2020/12/14 13:35:26;;;;;;;2.53;1.65;;;7.50;87.40;;;;;;6174150;23;20132;-87
2020/12/14 13:37:53;;;;;;;2.90;1.85;;;7.60;87.70;;;;;;6178638;23;20021;-85
2020/12/14 13:40:19;;;;;;;1.95;1.40;;;7.70;91.40;;;;;;6166683;23;20025;-87
2020/12/14 13:42:45;;;;;;;2.92;1.48;;;7.50;87.90;;;;;;6157639;23;20020;-86
2020/12/14 13:45:12;;;;;;;3.10;1.95;;;7.60;88.00;;;;;;6130759;23;20032;-86
2020/12/14 13:47:41;;;;;;;3.20;2.35;;;7.60;88.10;;;;;;6130605;23;20064;-86
2020/12/14 13:50:07;;;;;;;4.05;2.25;;;7.60;87.90;;;;;;6138409;23;19998;-85
2020/12/14 13:52:33;;;;;;;4.55;2.47;;;7.60;88.50;;;;;;6150388;23;20426;-85
2020/12/14 13:54:58;;;;;;;4.15;2.08;;;7.60;88.40;;;;;;6158217;23;19997;-85
2020/12/14 13:57:24;;;;;;;1.80;1.30;;;7.50;89.00;;;;;;6132664;23;20061;-84
2020/12/14 13:59:50;;;;;;;2.35;1.45;;;7.50;89.30;;;;;;6157757;23;20405;-84
2020/12/14 14:02:16;;;;;;;3.13;1.70;;;7.50;89.80;;;;;;6131565;23;20014;-84
2020/12/14 14:04:42;;;;;;;1.50;1.40;;;7.50;89.40;;;;;;6131555;23;20009;-85
2020/12/14 14:07:08;;;;;;;3.22;2.05;;;7.50;89.50;;;;;;6130040;23;20015;-85
2020/12/14 14:09:35;;;;;;;3.03;1.73;;;7.50;89.60;;;;;;6130457;23;20033;-84
2020/12/14 14:12:01;;;;;;;1.88;1.23;;;7.50;89.70;;;;;;6146666;23;20029;-83
2020/12/14 14:14:27;;;;;;;1.40;1.30;;;7.50;90.00;;;;;;6162412;23;20437;-85
2020/12/14 14:16:55;;;;;;;1.17;1.05;;;7.40;90.10;;;;;;6132006;23;20011;-84
2020/12/14 14:19:22;;;;;;;1.52;1.10;;;7.40;90.20;;;;;;6156460;23;20325;-86
2020/12/14 14:21:56;;;;;;;2.20;1.58;;;7.40;90.40;;;;;;6130175;23;20381;-85
2020/12/14 14:24:23;;;;;;;2.08;1.50;;;7.30;90.50;;;;;;6156860;23;19998;-84
2020/12/14 14:26:57;;;;;;;2.47;1.40;;;7.30;90.70;;;;;;6106379;23;20069;-85
2020/12/14 14:29:24;;;;;;;2.88;1.50;;;7.20;91.00;;;;;;6164012;23;20001;-84
2020/12/14 14:31:55;;;;;;;1.50;1.40;;;7.20;91.20;;;;;;6176355;23;20046;-84
2020/12/14 14:34:22;;;;;;;2.63;1.70;;;7.10;91.40;;;;;;6176015;23;20004;-85
2020/12/14 14:36:52;;;;;;;1.38;1.13;;;7.10;91.90;;;;;;6149490;23;20001;-84
2020/12/14 14:39:19;;;;;;;2.03;1.10;;;7.00;91.90;;;;;;6148746;23;20005;-83
2020/12/14 14:41:45;;;;;;;1.40;1.30;;;6.90;92.10;;;;;;6173476;23;19998;-84
2020/12/14 14:44:17;;;;;;;2.00;1.58;;;;;;;;;;6147308;23;20088;-85
2020/12/14 14:46:49;;;;;;;2.20;1.35;;;6.80;92.20;;;;;;6136221;23;20001;-84
2020/12/14 14:49:17;;;;;;;2.08;1.50;;;6.80;92.70;;;;;;6134783;23;20009;-85
2020/12/14 14:51:55;;;;;;;2.70;1.55;;;6.70;93.20;;;;;;6134590;23;19997;-85
2020/12/14 14:54:23;;;;;;;2.80;2.08;;;6.60;93.80;;;;;;6110460;23;20009;-84
2020/12/14 14:56:49;;;;;;;4.00;2.40;;;6.50;94.50;;;;;;6161184;23;20001;-84
2020/12/14 14:59:16;;;;;;;2.88;2.08;;;6.40;95.20;;;;;;6159194;23;20171;-85
2020/12/14 15:01:42;;;;;;;2.20;1.98;;;6.40;95.80;;;;;;6158423;23;20021;-84
2020/12/14 15:04:09;;;;;;;2.53;2.10;;;6.20;96.40;;;;;;6158378;23;20048;-84
2020/12/14 19:33:52;;;;;;;6.28;3.75;;;3.90;98.60;;;;;;6135508;23;20017;-85
2020/12/14 21:26:10;;;;;;;6.22;4.82;;;3.00;99.90;;;;;;6131601;23;20006;-86
2020/12/14 21:28:36;;;;;;;9.20;5.90;;;3.00;99.90;;;;;;6132293;23;20010;-87
2020/12/14 21:31:02;;;;;;;9.15;5.13;;;3.10;99.90;;;;;;6105912;23;20065;-85
2020/12/14 21:33:28;;;;;;;8.80;6.40;;;3.10;99.90;;;;;;6137548;23;19998;-85
2020/12/14 21:35:54;;;;;;;8.38;5.70;;;3.10;99.90;;;;;;6131906;23;20017;-87
2020/12/14 21:41:05;;;;;;;7.80;4.88;;;3.00;99.90;;;;;;6131638;23;20468;-85
2020/12/14 21:44:03;;;;;;;8.88;4.78;;;3.10;99.90;;;;;;6136184;23;20010;-86
2020/12/14 21:46:32;;;;;;;9.52;6.15;;;3.00;99.90;;;;;;6124629;23;20342;-86
2020/12/14 21:48:58;;;;;;;9.70;6.30;;;3.00;99.90;;;;;;6130850;23;20048;-85
2020/12/14 21:51:23;;;;;;;9.85;5.47;;;2.90;99.90;;;;;;6130947;23;20025;-85
2020/12/14 21:53:49;;;;;;;6.50;4.63;;;2.90;99.90;;;;;;6105268;23;20013;-85
2020/12/14 21:56:24;;;;;;;7.38;5.90;;;2.90;99.90;;;;;;6132998;23;20002;-86
2020/12/14 21:58:50;;;;;;;8.02;5.15;;;2.80;99.90;;;;;;6135014;23;20085;-85
2020/12/14 22:01:26;;;;;;;7.95;5.63;;;2.80;99.90;;;;;;6108444;23;20013;-84
2020/12/14 22:03:52;;;;;;;7.82;4.63;;;2.80;99.90;;;;;;6109219;23;20017;-83
2020/12/14 22:06:24;;;;;;;9.50;5.15;;;2.80;99.90;;;;;;6133496;23;20068;-84
2020/12/14 22:08:50;;;;;;;7.57;4.50;;;2.90;99.90;;;;;;6131818;23;20010;-84
2020/12/14 22:11:22;;;;;;;7.13;5.13;;;2.90;99.90;;;;;;6133707;23;20002;-83
2020/12/14 22:13:51;;;;;;;7.60;4.85;;;2.80;99.90;;;;;;6121942;23;19994;-84
2020/12/14 22:16:24;;;;;;;8.57;5.82;;;2.90;99.90;;;;;;6151829;23;20046;-83
2020/12/14 22:18:51;;;;;;;7.47;4.72;;;2.80;99.90;;;;;;6106664;23;20434;-83
2020/12/14 22:21:17;;;;;;;8.73;5.70;;;;;;;;;;6103934;23;20010;-82
2020/12/14 22:23:44;;;;;;;7.50;5.60;;;2.80;99.90;;;;;;6144140;23;20001;-83
2020/12/14 22:26:17;;;;;;;6.32;4.15;;;2.70;99.90;;;;;;6124530;23;19998;-83
2020/12/14 22:28:45;;;;;;;7.30;5.43;;;2.70;99.90;;;;;;6149691;23;20006;-83
2020/12/14 22:31:13;;;;;;;6.38;4.32;;;2.60;99.90;;;;;;6133612;23;20006;-83
2020/12/14 22:33:39;;;;;;;7.55;5.38;;;2.60;99.90;;;;;;6130483;23;20005;-84
2020/12/14 22:36:05;;;;;;;7.13;5.47;;;2.60;99.90;;;;;;6105293;23;20010;-84
2020/12/14 22:38:31;;;;;;;6.60;4.68;;;2.60;99.90;;;;;;6132460;23;19998;-83
2020/12/14 22:40:57;;;;;;;6.35;4.82;;;2.60;99.90;;;;;;6106671;23;20033;-83
2020/12/14 22:43:23;;;;;;;8.20;6.22;;;2.60;99.90;;;;;;6104350;23;20001;-83
2020/12/14 22:45:48;;;;;;;6.88;5.00;;;2.60;99.90;;;;;;6131561;23;20048;-83
2020/12/14 22:48:15;;;;;;;5.25;4.00;;;2.50;99.90;;;;;;6128541;23;20120;-83
2020/12/14 22:50:41;;;;;;;5.65;4.30;;;2.50;99.90;;;;;;6128478;23;20002;-83
2020/12/14 22:53:06;;;;;;;4.63;3.67;;;2.60;99.90;;;;;;6131732;23;20030;-83
2020/12/14 22:55:32;;;;;;;5.50;4.00;;;2.60;99.90;;;;;;6104415;23;20014;-83
2020/12/14 22:57:58;;;;;;;7.43;4.10;;;2.60;99.90;;;;;;6130206;23;20366;-83
2020/12/14 23:00:26;;;;;;;6.07;4.25;;;2.60;99.90;;;;;;6131872;23;20339;-83
2020/12/14 23:02:51;;;;;;;6.13;4.63;;;2.60;99.90;;;;;;6129995;23;20311;-83
2020/12/14 23:05:17;;;;;;;6.18;3.97;;;2.60;99.90;;;;;;6130129;23;20009;-83
2020/12/14 23:07:43;;;;;;;6.00;4.57;;;2.60;99.90;;;;;;6104739;23;20006;-83
2020/12/14 23:10:08;;;;;;;6.88;4.82;;;2.50;99.90;;;;;;6130735;23;20040;-84
2020/12/14 23:12:36;;;;;;;6.50;4.72;;;2.50;99.90;;;;;;6129878;23;20008;-84
2020/12/14 23:15:03;;;;;;;8.15;5.78;;;2.40;99.90;;;;;;6104653;23;20002;-83
2020/12/14 23:17:28;;;;;;;7.70;5.60;;;2.40;99.90;;;;;;6127801;23;20002;-83
2020/12/14 23:19:54;;;;;;;9.52;6.57;;;2.40;99.90;;;;;;6104395;23;20095;-83
2020/12/14 23:22:19;;;;;;;7.43;5.55;;;2.40;99.90;;;;;;6103455;23;20426;-83
2020/12/14 23:24:45;;;;;;;7.15;5.15;;;2.30;99.90;;;;;;6102709;23;20395;-83
2020/12/14 23:27:11;;;;;;;8.55;6.10;;;2.30;99.90;;;;;;6104437;23;20026;-83
2020/12/14 23:29:37;;;;;;;8.48;5.97;;;2.30;99.90;;;;;;6129398;23;20009;-82
2020/12/14 23:32:03;;;;;;;9.98;6.43;;;2.30;99.90;;;;;;6127396;23;20438;-83
2020/12/14 23:34:29;;;;;;;7.90;5.63;;;2.40;99.90;;;;;;6129593;23;20052;-83
2020/12/14 23:36:54;;;;;;;9.60;6.13;;;2.40;99.90;;;;;;6102687;23;20002;-83
2020/12/14 23:39:20;;;;;;;9.55;6.78;;;2.40;99.90;;;;;;6102966;23;20493;-84
2020/12/14 23:41:46;;;;;;;11.52;8.02;;;2.40;99.90;;;;;;6130035;23;20002;-82
2020/12/14 23:44:12;;;;;;;12.55;7.57;;;2.40;99.90;;;;;;6101996;23;20018;-83
2020/12/14 23:46:38;;;;;;;11.80;8.13;;;2.40;99.90;;;;;;6128033;23;20093;-83
2020/12/14 23:49:05;;;;;;;15.02;9.02;;;2.40;99.90;;;;;;6102085;23;20201;-83
2020/12/14 23:51:31;;;;;;;14.82;8.60;;;2.40;99.90;;;;;;6127881;23;20065;-83
2020/12/14 23:53:56;;;;;;;12.15;7.60;;;2.40;99.90;;;;;;6126856;23;20264;-83
2020/12/14 23:56:22;;;;;;;9.80;6.75;;;2.40;99.90;;;;;;6101032;23;20013;-83
2020/12/14 23:58:48;;;;;;;12.38;8.55;;;2.30;99.90;;;;;;6100217;23;20022;-82
